Time;durP1;ratioP1;P1;durP2;ratioP2;P2;SDS_P1;SDS_P2;PMS_P1;PMS_P2;Temp;Humidity;BMP_temperature;BMP_pressure;BME280_temperature;BME280_humidity;BME280_pressure;Samples;Min_cycle;Max_cycle;Signal;HPM_P1;HPM_P2
2022/05/31 00:01:35;;;;;;;0.30;0.30;;;10.60;99.90;;;;;;5031732;28;20041;-71
2022/05/31 00:04:01;;;;;;;0.00;0.00;;;10.60;99.90;;;;;;5028742;28;20112;-71
2022/05/31 00:06:27;;;;;;;0.10;0.10;;;10.70;99.90;;;;;;5024915;28;20522;-71
2022/05/31 00:08:53;;;;;;;0.10;0.10;;;10.60;99.90;;;;;;5027803;28;20037;-71
2022/05/31 00:11:19;;;;;;;0.10;0.10;;;10.60;99.90;;;;;;5017558;28;20505;-71
2022/05/31 00:13:45;;;;;;;0.43;0.43;;;10.60;99.90;;;;;;5031204;28;20084;-71
2022/05/31 00:16:10;;;;;;;0.00;0.00;;;10.60;99.90;;;;;;5017335;28;20053;-71
2022/05/31 00:18:36;;;;;;;0.98;0.73;;;10.50;99.90;;;;;;5018740;28;20088;-71
2022/05/31 00:21:03;;;;;;;0.10;0.10;;;10.50;99.90;;;;;;5023017;28;20053;-71
2022/05/31 00:23:29;;;;;;;0.10;0.10;;;10.50;99.90;;;;;;5029964;28;20056;-71
2022/05/31 00:25:54;;;;;;;0.25;0.25;;;10.50;99.90;;;;;;5044957;28;20397;-71
2022/05/31 00:28:20;;;;;;;0.10;0.10;;;10.50;99.90;;;;;;5020707;28;20828;-71
2022/05/31 00:30:45;;;;;;;0.10;0.10;;;10.50;99.90;;;;;;5015190;28;20037;-71
2022/05/31 00:33:11;;;;;;;0.00;0.00;;;10.40;99.90;;;;;;5022234;28;20057;-71
2022/05/31 00:35:40;;;;;;;0.00;0.00;;;10.40;99.90;;;;;;5031382;28;20059;-71
2022/05/31 00:38:07;;;;;;;0.20;0.20;;;10.40;99.90;;;;;;5041672;28;20041;-71
2022/05/31 00:40:34;;;;;;;0.10;0.10;;;10.40;99.90;;;;;;5037222;28;20049;-71
2022/05/31 00:43:03;;;;;;;0.00;0.00;;;10.40;99.90;;;;;;5021302;28;20042;-71
2022/05/31 00:45:59;;;;;;;0.00;0.00;;;10.40;99.90;;;;;;5030237;28;20558;-71
2022/05/31 00:48:27;;;;;;;0.00;0.00;;;10.40;99.90;;;;;;5032888;28;20052;-71
2022/05/31 00:50:59;;;;;;;0.10;0.10;;;10.40;99.90;;;;;;5012494;28;20058;-71
2022/05/31 00:53:29;;;;;;;0.08;0.08;;;10.40;99.90;;;;;;5035874;28;20060;-71
2022/05/31 00:55:59;;;;;;;0.35;0.35;;;10.40;99.90;;;;;;5046761;28;20061;-71
2022/05/31 00:58:55;;;;;;;0.22;0.22;;;10.40;99.90;;;;;;5013068;28;20041;-71
2022/05/31 01:01:20;;;;;;;0.10;0.10;;;10.30;99.90;;;;;;5024323;28;20073;-71
2022/05/31 01:03:47;;;;;;;0.52;0.52;;;10.30;99.90;;;;;;5036271;28;20080;-71
2022/05/31 01:06:13;;;;;;;0.10;0.10;;;10.30;99.90;;;;;;5026788;28;20081;-71
2022/05/31 01:08:44;;;;;;;0.10;0.10;;;10.30;99.90;;;;;;5041186;28;20077;-71
2022/05/31 01:11:13;;;;;;;2.50;1.17;;;10.30;99.90;;;;;;5027897;28;20665;-71
2022/05/31 01:13:40;;;;;;;2.05;1.05;;;10.30;99.90;;;;;;5037071;28;20382;-72
2022/05/31 01:16:09;;;;;;;0.10;0.10;;;10.30;99.90;;;;;;5021435;28;20539;-71
2022/05/31 01:18:34;;;;;;;0.22;0.22;;;10.30;99.90;;;;;;5024225;28;20041;-71
2022/05/31 01:21:00;;;;;;;0.10;0.10;;;10.30;99.90;;;;;;5020268;28;20050;-72
2022/05/31 01:23:30;;;;;;;0.00;0.00;;;10.30;99.90;;;;;;5021791;28;20042;-71
2022/05/31 01:26:01;;;;;;;0.20;0.20;;;10.30;99.90;;;;;;5033368;28;20432;-72
2022/05/31 01:28:42;;;;;;;0.05;0.05;;;10.30;99.90;;;;;;5025345;28;20098;-71
2022/05/31 01:31:28;;;;;;;0.10;0.10;;;10.30;99.90;;;;;;5036673;28;20111;-71
2022/05/31 01:34:25;;;;;;;0.10;0.10;;;10.30;99.90;;;;;;5031254;28;20057;-72
2022/05/31 01:36:56;;;;;;;0.10;0.10;;;10.40;99.90;;;;;;5021917;28;20501;-71
2022/05/31 01:39:50;;;;;;;0.20;0.20;;;10.40;99.90;;;;;;5043508;28;20045;-72
2022/05/31 01:42:29;;;;;;;1.45;1.20;;;10.40;99.90;;;;;;5021851;28;20088;-71
2022/05/31 01:45:05;;;;;;;0.00;0.00;;;10.40;99.90;;;;;;5033525;28;20087;-72
2022/05/31 01:47:32;;;;;;;0.30;0.30;;;10.40;99.90;;;;;;5033432;28;20169;-72
2022/05/31 01:49:58;;;;;;;0.10;0.10;;;10.50;99.90;;;;;;5019640;28;20048;-71
2022/05/31 01:52:24;;;;;;;0.00;0.00;;;10.50;99.90;;;;;;5029457;28;20421;-72
2022/05/31 01:54:53;;;;;;;0.10;0.10;;;10.50;99.90;;;;;;5046688;28;20080;-72
2022/05/31 01:57:20;;;;;;;0.10;0.10;;;10.40;99.90;;;;;;5024895;28;20050;-71
2022/05/31 01:59:54;;;;;;;0.20;0.20;;;10.40;99.90;;;;;;5022653;28;20048;-72
2022/05/31 02:02:21;;;;;;;0.00;0.00;;;10.40;99.90;;;;;;5032251;28;20120;-71
2022/05/31 02:04:47;;;;;;;0.30;0.30;;;10.30;99.90;;;;;;5021274;28;20046;-71
2022/05/31 02:07:16;;;;;;;0.10;0.10;;;10.30;99.90;;;;;;5026787;28;20051;-71
2022/05/31 02:09:43;;;;;;;0.10;0.10;;;10.40;99.90;;;;;;5047600;28;20509;-72
2022/05/31 02:12:11;;;;;;;0.10;0.10;;;10.30;99.90;;;;;;5019897;28;20090;-71
2022/05/31 02:14:38;;;;;;;0.22;0.22;;;10.30;99.90;;;;;;5017105;28;20046;-71
2022/05/31 02:17:04;;;;;;;0.00;0.00;;;10.30;99.90;;;;;;5021629;28;20042;-71
2022/05/31 02:19:30;;;;;;;0.10;0.10;;;10.30;99.90;;;;;;5032153;28;20046;-71
2022/05/31 02:21:58;;;;;;;0.10;0.10;;;10.40;99.90;;;;;;5023914;28;20050;-71
2022/05/31 02:24:25;;;;;;;0.10;0.10;;;10.40;99.90;;;;;;5012085;28;20050;-71
2022/05/31 02:26:51;;;;;;;0.10;0.10;;;10.40;99.90;;;;;;5037424;28;20069;-71
2022/05/31 02:29:23;;;;;;;0.00;0.00;;;10.30;99.90;;;;;;5028254;28;20586;-71
2022/05/31 02:31:49;;;;;;;0.08;0.08;;;10.40;99.90;;;;;;5017746;28;20034;-71
2022/05/31 02:34:18;;;;;;;0.10;0.10;;;10.40;99.90;;;;;;5038906;28;20049;-71
2022/05/31 02:36:44;;;;;;;0.20;0.20;;;10.40;99.90;;;;;;5030189;28;20054;-71
2022/05/31 02:39:09;;;;;;;0.10;0.10;;;10.40;99.90;;;;;;5042152;28;20041;-71
2022/05/31 02:41:36;;;;;;;0.00;0.00;;;10.40;99.90;;;;;;5029374;28;20072;-71
2022/05/31 02:44:01;;;;;;;0.10;0.10;;;10.50;99.90;;;;;;5022074;28;20046;-71
2022/05/31 02:46:27;;;;;;;0.30;0.25;;;10.40;99.90;;;;;;5021741;28;20128;-71
2022/05/31 02:48:53;;;;;;;0.47;0.47;;;10.40;99.90;;;;;;5023509;28;20096;-71
2022/05/31 02:51:19;;;;;;;0.13;0.13;;;10.40;99.90;;;;;;5029609;28;20109;-71
2022/05/31 02:53:45;;;;;;;0.00;0.00;;;10.50;99.90;;;;;;5033915;28;20045;-71
2022/05/31 02:56:10;;;;;;;0.05;0.05;;;10.50;99.90;;;;;;5023947;28;20057;-71
2022/05/31 02:58:36;;;;;;;0.10;0.10;;;10.50;99.90;;;;;;5029587;28;20049;-71
2022/05/31 03:01:18;;;;;;;0.10;0.10;;;10.40;99.90;;;;;;5039574;28;20057;-71
2022/05/31 03:03:43;;;;;;;0.10;0.10;;;10.50;99.90;;;;;;5023508;28;20128;-71
2022/05/31 03:06:09;;;;;;;0.00;0.00;;;10.50;99.90;;;;;;5025397;28;20133;-71
2022/05/31 03:08:34;;;;;;;0.20;0.20;;;10.50;99.90;;;;;;5034355;28;20046;-71
2022/05/31 03:11:02;;;;;;;0.35;0.22;;;10.40;99.90;;;;;;5015185;28;20409;-71
2022/05/31 03:13:28;;;;;;;0.10;0.10;;;10.50;99.90;;;;;;5042618;28;20048;-71
2022/05/31 03:15:57;;;;;;;0.30;0.30;;;10.50;99.90;;;;;;5031068;28;20081;-71
2022/05/31 03:18:27;;;;;;;0.10;0.10;;;10.50;99.90;;;;;;5026107;28;20416;-71
2022/05/31 03:20:56;;;;;;;0.00;0.00;;;10.50;99.90;;;;;;5026378;28;20057;-71
2022/05/31 03:23:29;;;;;;;0.00;0.00;;;10.50;99.90;;;;;;5018931;28;20064;-71
2022/05/31 03:25:57;;;;;;;0.15;0.15;;;10.50;99.90;;;;;;5037698;28;20120;-71
2022/05/31 03:28:25;;;;;;;1.08;0.65;;;10.50;99.90;;;;;;5020190;28;20050;-71
2022/05/31 03:30:50;;;;;;;0.00;0.00;;;10.50;99.90;;;;;;5022971;28;20413;-71
2022/05/31 03:33:16;;;;;;;0.10;0.10;;;10.50;99.90;;;;;;5029918;28;20049;-71
2022/05/31 03:35:42;;;;;;;1.38;0.63;;;10.60;99.90;;;;;;5028954;28;20033;-71
2022/05/31 03:38:08;;;;;;;0.00;0.00;;;10.50;99.90;;;;;;5018771;28;20107;-71
2022/05/31 03:43:17;;;;;;;0.10;0.10;;;10.50;99.90;;;;;;5035288;28;20483;-71
2022/05/31 03:45:44;;;;;;;0.22;0.22;;;10.60;99.90;;;;;;5023883;28;20046;-71
2022/05/31 03:48:11;;;;;;;0.10;0.10;;;10.60;99.90;;;;;;5012131;28;20042;-71
2022/05/31 03:50:38;;;;;;;0.00;0.00;;;10.50;99.90;;;;;;5036450;28;20033;-71
2022/05/31 03:53:05;;;;;;;0.00;0.00;;;10.60;99.90;;;;;;5012816;28;20046;-71
2022/05/31 03:55:31;;;;;;;0.10;0.10;;;10.60;99.90;;;;;;5013979;28;20053;-71
2022/05/31 03:57:57;;;;;;;0.50;0.50;;;10.60;99.90;;;;;;5011966;28;20063;-71
2022/05/31 04:00:23;;;;;;;0.10;0.10;;;10.60;99.90;;;;;;5036041;28;20049;-71
2022/05/31 04:02:48;;;;;;;0.10;0.10;;;10.60;99.90;;;;;;5030396;28;20056;-71
2022/05/31 04:05:14;;;;;;;0.10;0.10;;;10.60;99.90;;;;;;5013879;28;20042;-72
2022/05/31 04:07:40;;;;;;;0.00;0.00;;;10.60;99.90;;;;;;5031838;28;20052;-71
2022/05/31 04:10:07;;;;;;;0.20;0.20;;;10.60;99.90;;;;;;5032371;28;20053;-71
2022/05/31 04:12:34;;;;;;;0.10;0.10;;;10.60;99.90;;;;;;5030597;28;20149;-71
2022/05/31 04:15:00;;;;;;;0.10;0.10;;;10.60;99.90;;;;;;5019523;28;20046;-71
2022/05/31 04:17:25;;;;;;;0.10;0.10;;;10.50;99.90;;;;;;5034415;28;20090;-72
2022/05/31 04:19:51;;;;;;;0.10;0.10;;;10.60;99.90;;;;;;5041345;28;20106;-72
2022/05/31 04:22:16;;;;;;;0.10;0.10;;;10.60;99.90;;;;;;5026121;28;20049;-71
2022/05/31 04:24:42;;;;;;;0.10;0.10;;;10.60;99.90;;;;;;5022760;28;20057;-71
2022/05/31 04:27:07;;;;;;;0.20;0.20;;;10.60;99.90;;;;;;5020681;28;20056;-71
2022/05/31 04:29:35;;;;;;;0.22;0.20;;;10.60;99.90;;;;;;5022434;28;20041;-71
2022/05/31 04:32:00;;;;;;;0.10;0.10;;;10.60;99.90;;;;;;5028682;28;20048;-71
2022/05/31 04:34:27;;;;;;;0.00;0.00;;;10.60;99.90;;;;;;5017749;28;20042;-71
2022/05/31 04:36:52;;;;;;;0.10;0.10;;;10.60;99.90;;;;;;5019855;28;20562;-71
2022/05/31 04:39:18;;;;;;;0.50;0.50;;;10.70;99.90;;;;;;5020984;28;20050;-71
2022/05/31 04:41:43;;;;;;;0.17;0.17;;;10.60;99.90;;;;;;5024625;28;20041;-71
2022/05/31 04:44:09;;;;;;;0.00;0.00;;;10.60;99.90;;;;;;5019329;28;20104;-71
2022/05/31 04:46:35;;;;;;;0.10;0.10;;;10.60;99.90;;;;;;5023164;28;20037;-71
2022/05/31 04:49:02;;;;;;;0.10;0.10;;;10.70;99.90;;;;;;5023224;28;20465;-71
2022/05/31 04:51:29;;;;;;;0.00;0.00;;;10.70;99.90;;;;;;5023557;28;20612;-71
2022/05/31 04:53:55;;;;;;;0.10;0.10;;;10.70;99.90;;;;;;5020787;28;20132;-72
2022/05/31 04:56:21;;;;;;;0.10;0.10;;;10.80;99.90;;;;;;5015483;28;20453;-71
2022/05/31 04:58:48;;;;;;;0.40;0.40;;;10.80;99.90;;;;;;5019287;28;20071;-71
2022/05/31 05:01:14;;;;;;;0.08;0.08;;;10.80;99.90;;;;;;5023203;28;20058;-71
2022/05/31 05:03:44;;;;;;;0.13;0.13;;;10.80;99.90;;;;;;5022354;28;20473;-71
2022/05/31 05:06:11;;;;;;;0.30;0.30;;;10.90;99.90;;;;;;5029958;28;20056;-71
2022/05/31 05:08:38;;;;;;;0.00;0.00;;;10.90;99.90;;;;;;5029427;28;20045;-71
2022/05/31 05:11:07;;;;;;;0.00;0.00;;;10.90;99.90;;;;;;5018843;28;20038;-71
2022/05/31 05:13:32;;;;;;;0.17;0.17;;;11.00;99.90;;;;;;5039492;28;20488;-71
2022/05/31 05:15:59;;;;;;;0.10;0.10;;;11.00;99.90;;;;;;5024846;28;20045;-71
2022/05/31 05:18:26;;;;;;;0.00;0.00;;;11.00;99.90;;;;;;5017267;28;20468;-71
2022/05/31 05:20:52;;;;;;;0.00;0.00;;;11.00;99.90;;;;;;5031811;28;20112;-71
2022/05/31 05:23:18;;;;;;;0.03;0.03;;;11.00;99.90;;;;;;5012893;28;20517;-71
2022/05/31 05:25:48;;;;;;;0.00;0.00;;;10.90;99.90;;;;;;5031864;28;20044;-71
2022/05/31 05:30:58;;;;;;;0.00;0.00;;;11.00;99.90;;;;;;5014661;28;20053;-71
2022/05/31 05:33:24;;;;;;;0.10;0.10;;;11.00;99.90;;;;;;5018678;28;20490;-71
2022/05/31 05:35:49;;;;;;;0.10;0.10;;;11.00;99.90;;;;;;5021032;28;20044;-71
2022/05/31 05:38:15;;;;;;;0.05;0.05;;;11.00;99.90;;;;;;5019868;28;20049;-71
2022/05/31 05:40:40;;;;;;;0.10;0.10;;;11.10;99.90;;;;;;5021045;28;20033;-71
2022/05/31 05:43:08;;;;;;;0.08;0.08;;;11.10;99.90;;;;;;5030240;28;20102;-71
2022/05/31 05:45:33;;;;;;;0.00;0.00;;;11.10;99.90;;;;;;5031976;28;20397;-71
2022/05/31 05:47:59;;;;;;;0.10;0.10;;;11.10;99.90;;;;;;5016786;28;20046;-71
2022/05/31 05:50:25;;;;;;;0.00;0.00;;;11.10;99.90;;;;;;5026617;28;20105;-71
2022/05/31 05:52:57;;;;;;;0.00;0.00;;;11.10;99.90;;;;;;5028114;28;20481;-71
2022/05/31 05:55:23;;;;;;;0.10;0.10;;;11.10;99.90;;;;;;5019876;28;20066;-71
2022/05/31 05:57:48;;;;;;;0.10;0.10;;;11.10;99.90;;;;;;5028018;28;20495;-71
2022/05/31 06:00:14;;;;;;;0.08;0.08;;;11.10;99.90;;;;;;5024411;28;20041;-71
2022/05/31 06:02:45;;;;;;;0.10;0.10;;;11.20;99.90;;;;;;5023638;28;20049;-71
2022/05/31 06:05:20;;;;;;;0.10;0.10;;;11.20;99.90;;;;;;5022172;28;20662;-71
2022/05/31 06:08:06;;;;;;;0.20;0.20;;;11.20;99.90;;;;;;5027737;28;20121;-71
2022/05/31 06:10:51;;;;;;;0.10;0.10;;;11.20;99.90;;;;;;5028432;28;20166;-70
2022/05/31 06:13:21;;;;;;;0.28;0.28;;;11.30;99.90;;;;;;5036591;28;20045;-70
2022/05/31 06:15:50;;;;;;;2.30;1.75;;;11.30;99.90;;;;;;5022476;28;20053;-72
2022/05/31 06:18:22;;;;;;;0.00;0.00;;;11.40;99.90;;;;;;5031538;28;20966;-71
2022/05/31 06:20:55;;;;;;;0.10;0.10;;;11.40;99.90;;;;;;5028375;28;20117;-71
2022/05/31 06:23:21;;;;;;;0.30;0.30;;;11.50;99.90;;;;;;5021669;28;20114;-72
2022/05/31 06:25:47;;;;;;;0.10;0.10;;;11.50;99.90;;;;;;5028744;28;20443;-71
2022/05/31 06:28:12;;;;;;;0.10;0.10;;;11.60;99.90;;;;;;5021844;28;20061;-72
2022/05/31 06:30:38;;;;;;;0.10;0.10;;;11.60;99.90;;;;;;5016465;28;20143;-72
2022/05/31 06:33:04;;;;;;;0.10;0.10;;;11.60;99.90;;;;;;5026034;28;20405;-71
2022/05/31 06:35:30;;;;;;;0.10;0.10;;;11.60;99.90;;;;;;5029051;28;20048;-69
2022/05/31 06:37:56;;;;;;;0.10;0.10;;;11.60;99.90;;;;;;5026674;28;20045;-69
2022/05/31 06:40:22;;;;;;;0.03;0.03;;;11.60;99.90;;;;;;5016709;28;20524;-69
2022/05/31 06:42:48;;;;;;;0.03;0.03;;;11.70;99.90;;;;;;5039903;28;20630;-69
2022/05/31 06:45:13;;;;;;;0.10;0.10;;;11.70;99.90;;;;;;5025210;28;20040;-69
2022/05/31 06:47:39;;;;;;;0.10;0.10;;;11.80;99.90;;;;;;5016767;28;20135;-69
2022/05/31 06:50:05;;;;;;;0.00;0.00;;;11.80;99.90;;;;;;5032726;28;20165;-69
2022/05/31 06:57:59;;;;;;;0.10;0.10;;;11.90;99.90;;;;;;5033601;28;20057;-69
2022/05/31 07:00:24;;;;;;;0.10;0.10;;;12.00;99.90;;;;;;5026866;28;20049;-69
2022/05/31 07:02:50;;;;;;;0.10;0.10;;;12.00;99.90;;;;;;5020713;28;20172;-69
2022/05/31 07:05:17;;;;;;;0.00;0.00;;;12.10;99.90;;;;;;5024610;28;20053;-69
2022/05/31 07:07:43;;;;;;;0.10;0.10;;;12.10;99.90;;;;;;5022649;28;20037;-69
2022/05/31 07:10:09;;;;;;;0.10;0.10;;;12.20;99.90;;;;;;5020895;28;20814;-69
2022/05/31 07:12:35;;;;;;;0.25;0.25;;;12.20;99.90;;;;;;5025280;28;20037;-69
2022/05/31 07:15:01;;;;;;;0.10;0.10;;;12.20;99.90;;;;;;5025950;28;21431;-69
2022/05/31 07:17:27;;;;;;;0.00;0.00;;;12.20;99.90;;;;;;5020849;28;20053;-69
2022/05/31 07:19:52;;;;;;;0.10;0.10;;;12.30;99.90;;;;;;5036519;28;20057;-69
2022/05/31 07:22:18;;;;;;;0.05;0.05;;;12.30;99.90;;;;;;5033413;28;20525;-69
2022/05/31 07:24:44;;;;;;;0.10;0.10;;;12.40;99.90;;;;;;5014930;28;20077;-69
2022/05/31 07:27:10;;;;;;;0.10;0.10;;;12.50;99.90;;;;;;5038431;28;20091;-69
2022/05/31 07:29:36;;;;;;;0.10;0.10;;;12.60;99.90;;;;;;5025239;28;20116;-69
2022/05/31 07:32:02;;;;;;;0.17;0.17;;;12.80;99.90;;;;;;5035224;28;20041;-69
2022/05/31 07:34:27;;;;;;;0.10;0.10;;;12.90;99.90;;;;;;5017113;28;20052;-69
2022/05/31 07:36:53;;;;;;;0.00;0.00;;;12.90;99.90;;;;;;5033761;28;20052;-69
2022/05/31 07:39:20;;;;;;;1.55;1.30;;;13.10;99.90;;;;;;5027677;28;20053;-69
2022/05/31 07:41:54;;;;;;;0.10;0.10;;;13.20;99.90;;;;;;5048109;28;20052;-69
2022/05/31 07:44:20;;;;;;;0.10;0.10;;;13.30;99.90;;;;;;5023530;28;20128;-69
2022/05/31 07:46:46;;;;;;;0.10;0.10;;;13.30;99.90;;;;;;5040115;28;20037;-69
2022/05/31 07:49:13;;;;;;;0.10;0.10;;;13.40;99.90;;;;;;5030872;28;20072;-69
2022/05/31 07:51:39;;;;;;;0.10;0.10;;;13.50;99.90;;;;;;5034183;28;20049;-69
2022/05/31 07:54:05;;;;;;;0.10;0.10;;;13.70;99.90;;;;;;5021817;28;20038;-69
2022/05/31 07:56:31;;;;;;;0.10;0.10;;;13.70;99.90;;;;;;5019271;28;20067;-69
2022/05/31 07:58:57;;;;;;;0.00;0.00;;;13.80;99.90;;;;;;5021919;28;20137;-69
2022/05/31 08:01:25;;;;;;;0.00;0.00;;;13.90;99.90;;;;;;5027970;28;20120;-69
2022/05/31 08:03:52;;;;;;;0.68;0.68;;;14.00;99.90;;;;;;5020687;28;20041;-69
2022/05/31 08:06:20;;;;;;;0.10;0.10;;;14.00;99.90;;;;;;5021308;28;20559;-69
2022/05/31 08:08:46;;;;;;;0.32;0.32;;;14.10;99.90;;;;;;5028955;28;20041;-69
2022/05/31 08:11:15;;;;;;;0.00;0.00;;;14.20;99.90;;;;;;5048338;28;20118;-70
2022/05/31 08:13:41;;;;;;;0.10;0.10;;;14.30;99.90;;;;;;5017869;28;20143;-69
2022/05/31 08:16:09;;;;;;;0.10;0.10;;;14.30;99.90;;;;;;5017712;28;20049;-70
2022/05/31 08:18:37;;;;;;;0.10;0.10;;;14.40;99.90;;;;;;5022463;28;20702;-70
2022/05/31 08:21:14;;;;;;;0.20;0.15;;;14.50;99.90;;;;;;5035144;28;20049;-70
2022/05/31 08:23:40;;;;;;;0.10;0.10;;;14.60;99.90;;;;;;5018997;28;20401;-70
2022/05/31 08:26:06;;;;;;;0.10;0.10;;;14.60;99.90;;;;;;5028180;28;20049;-69
2022/05/31 08:28:33;;;;;;;0.10;0.10;;;14.70;99.90;;;;;;5029096;28;20049;-70
2022/05/31 08:31:10;;;;;;;0.10;0.10;;;14.70;99.90;;;;;;5017592;28;20363;-69
2022/05/31 08:33:36;;;;;;;0.10;0.10;;;14.70;99.90;;;;;;5016517;28;20076;-70
2022/05/31 08:36:02;;;;;;;0.03;0.03;;;14.90;99.90;;;;;;5038407;28;20041;-70
2022/05/31 08:38:28;;;;;;;0.10;0.10;;;15.10;99.90;;;;;;5026610;28;20053;-70
2022/05/31 08:41:12;;;;;;;0.10;0.10;;;15.10;99.90;;;;;;5022499;28;20553;-69
2022/05/31 08:44:01;;;;;;;0.20;0.20;;;15.20;99.90;;;;;;5022120;28;20550;-70
2022/05/31 08:46:27;;;;;;;0.20;0.20;;;15.20;99.90;;;;;;5010778;28;20504;-69
2022/05/31 08:48:57;;;;;;;0.10;0.10;;;15.30;99.90;;;;;;5035922;28;20044;-70
2022/05/31 08:51:53;;;;;;;0.00;0.00;;;15.60;99.90;;;;;;5016696;28;20042;-70
2022/05/31 08:57:44;;;;;;;0.10;0.10;;;15.70;99.90;;;;;;5019833;28;20061;-70
2022/05/31 09:00:31;;;;;;;17.80;1.17;;;15.80;99.90;;;;;;5026149;28;20072;-70
2022/05/31 09:03:19;;;;;;;0.10;0.10;;;15.90;99.90;;;;;;5009443;28;20072;-71
2022/05/31 09:06:08;;;;;;;0.25;0.25;;;15.90;99.90;;;;;;5006564;28;20108;-70
2022/05/31 09:09:00;;;;;;;0.10;0.10;;;16.00;99.90;;;;;;5010738;28;20481;-71
2022/05/31 09:11:41;;;;;;;0.10;0.10;;;16.00;99.90;;;;;;5019974;28;20054;-70
2022/05/31 09:14:39;;;;;;;0.43;0.43;;;15.90;99.90;;;;;;5023518;28;20056;-70
2022/05/31 09:17:21;;;;;;;0.10;0.10;;;15.90;99.90;;;;;;5019077;28;20100;-71
2022/05/31 09:20:00;;;;;;;0.10;0.10;;;15.90;99.90;;;;;;5029948;28;20119;-70
2022/05/31 09:22:26;;;;;;;0.10;0.10;;;15.80;99.90;;;;;;5029835;28;20115;-70
2022/05/31 09:24:51;;;;;;;4.50;1.33;;;15.80;99.90;;;;;;5028576;28;20520;-71
2022/05/31 09:27:47;;;;;;;0.28;0.28;;;15.90;99.90;;;;;;5021953;28;20250;-70
2022/05/31 09:30:40;;;;;;;0.10;0.10;;;16.10;99.90;;;;;;5022084;28;20062;-70
2022/05/31 09:33:19;;;;;;;0.10;0.10;;;16.30;99.90;;;;;;5026726;28;20481;-70
2022/05/31 09:36:17;;;;;;;0.20;0.20;;;16.40;99.90;;;;;;5011054;28;20049;-70
2022/05/31 09:39:20;;;;;;;0.10;0.10;;;16.50;99.90;;;;;;5030663;28;20175;-70
2022/05/31 09:41:58;;;;;;;0.25;0.25;;;16.90;99.90;;;;;;5018669;28;20046;-69
2022/05/31 09:44:37;;;;;;;0.60;0.57;;;17.10;99.90;;;;;;5022362;28;20091;-69
2022/05/31 09:47:14;;;;;;;0.35;0.35;;;17.00;99.90;;;;;;5028773;28;20053;-69
2022/05/31 09:49:43;;;;;;;0.05;0.05;;;16.80;99.90;;;;;;5020580;28;20085;-69
2022/05/31 09:52:22;;;;;;;0.20;0.20;;;16.80;99.90;;;;;;5012254;28;20041;-69
2022/05/31 09:58:09;;;;;;;0.20;0.20;;;17.30;99.90;;;;;;5011794;28;20062;-69
2022/05/31 10:01:15;;;;;;;0.08;0.08;;;17.60;99.90;;;;;;5027750;28;20049;-69
2022/05/31 10:03:53;;;;;;;0.10;0.10;;;17.80;99.90;;;;;;5011189;28;20064;-69
2022/05/31 10:06:23;;;;;;;0.50;0.50;;;18.00;99.90;;;;;;5010154;28;20152;-69
2022/05/31 10:08:54;;;;;;;0.00;0.00;;;18.30;99.90;;;;;;5013950;28;20060;-69
2022/05/31 10:11:35;;;;;;;2.30;0.88;;;18.30;99.90;;;;;;5028892;28;20057;-69
2022/05/31 10:14:05;;;;;;;0.10;0.10;;;18.30;99.90;;;;;;5030147;28;20044;-69
2022/05/31 10:16:33;;;;;;;0.20;0.20;;;18.20;99.90;;;;;;5019924;28;20080;-68
2022/05/31 10:19:05;;;;;;;0.10;0.10;;;18.20;99.90;;;;;;5010264;28;20084;-69
2022/05/31 10:21:42;;;;;;;0.15;0.15;;;18.10;99.90;;;;;;5010278;28;20076;-68
2022/05/31 10:24:26;;;;;;;0.10;0.10;;;18.10;99.90;;;;;;5029414;28;20099;-68
2022/05/31 10:27:10;;;;;;;0.10;0.10;;;18.00;99.90;;;;;;5011956;28;20077;-68
2022/05/31 10:29:46;;;;;;;1.67;1.40;;;18.10;99.90;;;;;;5009916;28;20037;-68
2022/05/31 10:32:37;;;;;;;0.15;0.15;;;18.00;99.90;;;;;;5014730;28;20823;-69
2022/05/31 10:35:17;;;;;;;0.00;0.00;;;17.70;99.90;;;;;;5022542;28;20045;-68
2022/05/31 10:37:59;;;;;;;0.25;0.25;;;17.50;99.90;;;;;;5027979;28;20049;-68
2022/05/31 10:40:43;;;;;;;0.17;0.15;;;17.40;99.90;;;;;;5029519;28;20099;-68
2022/05/31 10:43:53;;;;;;;0.10;0.10;;;17.20;99.90;;;;;;5027055;28;20481;-68
2022/05/31 10:46:27;;;;;;;0.65;0.30;;;17.10;99.90;;;;;;5018098;28;20050;-69
2022/05/31 10:48:56;;;;;;;0.10;0.10;;;17.00;99.90;;;;;;5024599;28;20099;-68
2022/05/31 10:51:56;;;;;;;0.55;0.55;;;16.90;99.90;;;;;;5013789;28;20130;-68
2022/05/31 10:54:31;;;;;;;0.10;0.10;;;17.00;99.90;;;;;;5010617;28;20050;-69
2022/05/31 10:57:27;;;;;;;0.17;0.17;;;16.90;99.90;;;;;;5009135;28;20050;-69
2022/05/31 10:59:58;;;;;;;0.25;0.20;;;16.90;99.90;;;;;;5009466;28;20050;-69
2022/05/31 11:02:47;;;;;;;0.45;0.28;;;16.80;99.90;;;;;;5008288;28;20444;-69
2022/05/31 11:05:16;;;;;;;0.10;0.10;;;16.80;99.90;;;;;;5018442;28;20049;-69
2022/05/31 11:11:28;;;;;;;0.32;0.32;;;17.30;99.90;;;;;;5008327;28;20045;-69
2022/05/31 11:13:59;;;;;;;0.20;0.20;;;17.60;99.90;;;;;;5028416;28;20080;-69
2022/05/31 11:16:51;;;;;;;0.10;0.10;;;17.40;99.90;;;;;;5027691;28;20112;-69
2022/05/31 11:19:45;;;;;;;0.00;0.00;;;17.40;99.90;;;;;;5012923;28;20076;-69
2022/05/31 11:22:22;;;;;;;1.27;0.85;;;17.40;99.90;;;;;;5012015;28;20490;-69
2022/05/31 11:25:17;;;;;;;1.60;1.17;;;17.30;99.90;;;;;;5013222;28;20054;-71
2022/05/31 11:28:10;;;;;;;1.95;1.20;;;17.20;99.90;;;;;;5021149;28;20057;-70
2022/05/31 11:31:03;;;;;;;2.17;1.85;;;17.30;99.90;;;;;;5024612;28;20049;-70
2022/05/31 11:33:58;;;;;;;0.00;0.00;;;17.30;99.90;;;;;;5017066;28;20058;-70
2022/05/31 11:36:56;;;;;;;0.10;0.10;;;17.40;99.90;;;;;;5022372;28;20045;-71
2022/05/31 11:39:48;;;;;;;0.15;0.15;;;17.50;99.90;;;;;;5009759;28;20394;-71
2022/05/31 11:42:44;;;;;;;0.32;0.30;;;17.50;99.90;;;;;;5022378;28;20099;-70
2022/05/31 11:45:28;;;;;;;0.03;0.03;;;17.60;99.90;;;;;;5007192;28;20057;-70
2022/05/31 11:48:28;;;;;;;0.20;0.20;;;17.60;99.90;;;;;;5012307;28;20486;-71
2022/05/31 11:51:31;;;;;;;0.10;0.10;;;17.90;99.90;;;;;;5008485;28;20054;-70
2022/05/31 11:54:17;;;;;;;0.20;0.20;;;18.40;99.90;;;;;;5015063;28;20489;-71
2022/05/31 11:57:31;;;;;;;0.43;0.43;;;19.00;99.90;;;;;;5007463;28;20058;-70
2022/05/31 12:00:00;;;;;;;;;;;19.00;99.90;;;;;;5021411;28;20049;-70
2022/05/31 12:02:40;;;;;;;0.13;0.13;;;18.70;99.90;;;;;;5014271;28;19921;-70
2022/05/31 12:05:19;;;;;;;0.30;0.30;;;18.30;99.80;;;;;;5024478;28;20049;-70
2022/05/31 12:08:07;;;;;;;0.00;0.00;;;18.20;99.90;;;;;;5008600;28;20058;-70
2022/05/31 12:10:39;;;;;;;0.30;0.30;;;18.00;99.90;;;;;;5007683;28;20640;-70
2022/05/31 12:13:10;;;;;;;0.65;0.65;;;17.90;99.90;;;;;;5013793;28;20071;-70
2022/05/31 12:15:39;;;;;;;0.10;0.10;;;17.70;99.90;;;;;;5012453;28;20168;-70
2022/05/31 12:18:30;;;;;;;0.10;0.10;;;17.60;99.90;;;;;;5027356;28;20405;-71
2022/05/31 12:21:20;;;;;;;0.85;0.20;;;17.50;99.90;;;;;;5007411;28;20053;-71
2022/05/31 12:23:52;;;;;;;0.68;0.47;;;17.30;99.90;;;;;;5007753;28;20049;-70
2022/05/31 12:26:36;;;;;;;0.10;0.10;;;17.20;99.90;;;;;;5007285;28;20049;-71
2022/05/31 12:29:05;;;;;;;0.10;0.10;;;17.10;99.90;;;;;;5011447;28;20141;-71
2022/05/31 12:31:36;;;;;;;0.10;0.10;;;17.10;99.90;;;;;;5011395;28;20052;-70
2022/05/31 12:34:33;;;;;;;0.08;0.08;;;17.00;99.90;;;;;;5022594;28;20103;-71
2022/05/31 12:37:09;;;;;;;4.20;2.58;;;16.90;99.90;;;;;;5007319;28;20049;-70
2022/05/31 12:39:40;;;;;;;0.10;0.10;;;16.90;99.90;;;;;;5008953;28;20508;-70
2022/05/31 12:42:15;;;;;;;0.00;0.00;;;16.90;99.90;;;;;;5007214;28;20057;-71
2022/05/31 12:44:46;;;;;;;0.10;0.10;;;16.90;99.90;;;;;;5007858;28;20089;-71
2022/05/31 12:47:23;;;;;;;0.10;0.10;;;16.90;99.90;;;;;;5017684;28;20505;-70
2022/05/31 12:49:56;;;;;;;0.03;0.03;;;16.90;99.90;;;;;;5019237;28;20059;-71
2022/05/31 12:55:33;;;;;;;0.00;0.00;;;16.80;99.90;;;;;;5010689;28;20062;-71
2022/05/31 12:58:26;;;;;;;0.10;0.10;;;16.80;99.90;;;;;;5010325;28;20049;-71
2022/05/31 13:01:04;;;;;;;0.00;0.00;;;16.80;99.90;;;;;;5012318;28;20038;-71
2022/05/31 13:03:33;;;;;;;0.00;0.00;;;16.90;99.90;;;;;;5010956;28;20058;-71
2022/05/31 13:06:09;;;;;;;0.10;0.10;;;16.80;99.90;;;;;;5023891;28;20049;-71
2022/05/31 13:08:54;;;;;;;0.00;0.00;;;16.80;99.90;;;;;;5029825;28;20053;-71
2022/05/31 13:20:11;;;;;;;0.10;0.10;;;16.80;99.90;;;;;;5017407;28;20046;-71
2022/05/31 13:23:01;;;;;;;0.10;0.10;;;16.80;99.90;;;;;;5010750;28;20729;-72
2022/05/31 13:25:32;;;;;;;0.10;0.10;;;16.80;99.90;;;;;;5029431;28;20042;-71
2022/05/31 13:28:01;;;;;;;0.00;0.00;;;16.80;99.90;;;;;;5011283;28;20042;-71
2022/05/31 13:30:41;;;;;;;0.03;0.03;;;16.70;99.90;;;;;;5009291;28;20053;-71
2022/05/31 13:33:18;;;;;;;0.10;0.10;;;16.70;99.90;;;;;;5023223;28;20128;-71
2022/05/31 13:35:44;;;;;;;0.30;0.30;;;16.50;99.90;;;;;;5015085;28;20409;-71
2022/05/31 13:38:19;;;;;;;0.47;0.47;;;16.40;99.90;;;;;;5011006;28;20088;-71
2022/05/31 13:40:49;;;;;;;0.38;0.38;;;16.40;99.90;;;;;;5015814;28;20521;-71
2022/05/31 13:43:33;;;;;;;0.65;0.30;;;16.40;99.90;;;;;;5026650;28;20057;-71
2022/05/31 13:46:04;;;;;;;0.17;0.17;;;16.40;99.90;;;;;;5030113;28;20507;-71
2022/05/31 13:48:36;;;;;;;0.35;0.35;;;16.50;99.90;;;;;;5011873;28;20413;-71